createdAt,value
2023-04-29T00:00:08.350Z,0.75
2023-04-29T00:01:08.406Z,0.33
2023-04-29T00:02:08.493Z,0.29
2023-04-29T00:03:08.751Z,0.58
2023-04-29T00:04:08.807Z,0.36
2023-04-29T00:05:08.992Z,0.46
2023-04-29T00:06:08.877Z,0.62
2023-04-29T00:07:08.723Z,0.56
2023-04-29T00:08:08.773Z,0.57
2023-04-29T00:09:08.818Z,0.52
2023-04-29T00:10:08.868Z,0.46
2023-04-29T00:11:08.944Z,0.87
2023-04-29T00:12:08.985Z,0.54
2023-04-29T00:13:09.069Z,0.49
2023-04-29T00:14:09.089Z,0.56
2023-04-29T00:15:09.132Z,0.54
2023-04-29T00:16:09.182Z,0.57
2023-04-29T00:17:09.271Z,0.61
2023-04-29T00:18:09.491Z,0.47
2023-04-29T00:19:09.337Z,0.41
2023-04-29T00:20:09.415Z,0.60
2023-04-29T00:21:09.494Z,0.41
2023-04-29T00:22:09.529Z,0.54
2023-04-29T00:23:09.590Z,0.31
2023-04-29T00:24:09.645Z,0.40
2023-04-29T00:25:09.688Z,0.49
2023-04-29T00:26:09.790Z,0.45
2023-04-29T00:27:09.833Z,0.34
2023-04-29T00:28:09.890Z,0.38
2023-04-29T00:29:09.909Z,0.48
2023-04-29T00:30:10.049Z,0.37
2023-04-29T00:31:10.067Z,0.44
2023-04-29T00:32:10.114Z,0.62
2023-04-29T00:33:10.198Z,0.50
2023-04-29T00:34:10.214Z,0.45
2023-04-29T00:35:10.305Z,0.32
2023-04-29T00:36:10.319Z,0.46
2023-04-29T00:37:10.386Z,0.46
2023-04-29T00:38:10.459Z,0.42
2023-04-29T00:39:10.494Z,0.54
2023-04-29T00:40:10.562Z,0.55
2023-04-29T00:41:10.629Z,0.48
2023-04-29T00:42:10.726Z,0.34
2023-04-29T00:43:10.738Z,0.27
2023-04-29T00:44:10.800Z,0.62
2023-04-29T00:45:10.855Z,0.29
2023-04-29T00:46:10.969Z,0.52
2023-04-29T00:47:10.972Z,0.54
2023-04-29T00:48:11.036Z,0.59
2023-04-29T00:49:11.087Z,0.49
2023-04-29T00:50:11.176Z,0.37
2023-04-29T00:51:11.198Z,0.40
2023-04-29T00:52:11.274Z,0.41
2023-04-29T00:53:11.348Z,0.64
2023-04-29T00:54:11.398Z,0.68
2023-04-29T00:55:11.466Z,0.66
2023-04-29T00:56:11.508Z,0.65
2023-04-29T00:57:11.604Z,0.46
2023-04-29T00:58:11.612Z,0.44
2023-04-29T00:59:11.697Z,0.37
2023-04-29T01:00:11.767Z,0.39
2023-04-29T01:01:11.810Z,0.56
2023-04-29T01:02:11.899Z,0.61
2023-04-29T01:03:12.054Z,0.45
2023-04-29T01:04:12.105Z,0.36
2023-04-29T01:05:12.084Z,0.42
2023-04-29T01:06:12.124Z,0.59
2023-04-29T01:07:12.151Z,0.46
2023-04-29T01:08:12.219Z,0.34
2023-04-29T01:09:12.287Z,0.51
2023-04-29T01:10:12.364Z,0.45
2023-04-29T01:11:12.421Z,0.22
2023-04-29T01:12:12.427Z,0.38
2023-04-29T01:13:12.498Z,0.60
2023-04-29T01:14:12.527Z,0.42
2023-04-29T01:15:12.597Z,0.39
2023-04-29T01:16:12.703Z,0.50
2023-04-29T01:17:12.697Z,0.35
2023-04-29T01:18:12.785Z,0.46
2023-04-29T01:19:12.836Z,0.40
2023-04-29T01:20:12.906Z,0.53
2023-04-29T01:21:12.968Z,0.54
2023-04-29T01:22:13.029Z,0.50
2023-04-29T01:23:13.095Z,0.53
2023-04-29T01:24:13.122Z,0.52
2023-04-29T01:25:13.196Z,0.49
2023-04-29T01:26:13.270Z,0.48
2023-04-29T01:27:13.278Z,0.47
2023-04-29T01:28:13.347Z,0.42
2023-04-29T01:29:13.415Z,0.46
2023-04-29T01:30:13.496Z,0.44
2023-04-29T01:31:13.578Z,0.43
2023-04-29T01:32:13.620Z,0.51
2023-04-29T01:33:13.791Z,0.41
2023-04-29T01:34:13.759Z,0.67
2023-04-29T01:35:13.776Z,0.43
2023-04-29T01:36:13.854Z,0.33
2023-04-29T01:37:13.890Z,0.56
2023-04-29T01:38:13.967Z,0.38
2023-04-29T01:39:14.041Z,0.50
2023-04-29T01:40:14.137Z,0.56
2023-04-29T01:41:14.151Z,0.30
2023-04-29T01:42:14.198Z,0.32
2023-04-29T01:43:14.239Z,0.27
2023-04-29T01:44:14.290Z,0.35
2023-04-29T01:45:14.359Z,0.46
2023-04-29T01:46:14.479Z,0.29
2023-04-29T01:47:14.498Z,0.50
2023-04-29T01:48:14.566Z,0.30
2023-04-29T01:49:14.612Z,0.47
2023-04-29T01:50:14.668Z,0.38
2023-04-29T01:51:14.744Z,0.59
2023-04-29T01:52:14.765Z,0.40
2023-04-29T01:53:14.843Z,0.30
2023-04-29T01:54:14.896Z,0.40
2023-04-29T01:55:14.934Z,0.29
2023-04-29T01:56:14.988Z,0.34
2023-04-29T01:57:15.039Z,0.39
2023-04-29T01:58:15.104Z,0.37
2023-04-29T01:59:15.168Z,0.41
2023-04-29T02:00:15.225Z,0.47
2023-04-29T02:01:15.361Z,0.42
2023-04-29T02:02:15.369Z,0.36
2023-04-29T02:03:15.463Z,0.30
2023-04-29T02:04:15.470Z,0.38
2023-04-29T02:05:15.502Z,0.36
2023-04-29T02:06:15.549Z,0.23
2023-04-29T02:07:15.611Z,0.40
2023-04-29T02:08:15.687Z,0.41
2023-04-29T02:09:15.733Z,0.28
2023-04-29T02:10:15.772Z,0.28
2023-04-29T02:11:15.831Z,0.34
2023-04-29T02:12:15.938Z,0.43
2023-04-29T02:13:15.970Z,0.32
2023-04-29T02:14:16.019Z,0.31
2023-04-29T02:15:16.111Z,0.49
2023-04-29T02:16:16.273Z,0.30
2023-04-29T02:17:16.216Z,0.39
2023-04-29T02:18:16.259Z,0.16
2023-04-29T02:19:16.475Z,0.30
2023-04-29T02:20:16.411Z,0.37
2023-04-29T02:21:16.445Z,0.33
2023-04-29T02:22:16.515Z,0.43
2023-04-29T02:23:16.565Z,0.31
2023-04-29T02:24:16.634Z,0.33
2023-04-29T02:25:16.699Z,0.37
2023-04-29T02:26:16.770Z,0.23
2023-04-29T02:27:16.815Z,0.19
2023-04-29T02:28:16.855Z,0.22
2023-04-29T02:29:16.913Z,0.27
2023-04-29T02:30:16.990Z,0.40
2023-04-29T02:31:17.012Z,0.35
2023-04-29T02:32:17.287Z,0.27
2023-04-29T02:33:17.121Z,0.33
2023-04-29T02:34:17.170Z,0.50
2023-04-29T02:35:17.237Z,0.37
2023-04-29T02:36:17.326Z,0.31
2023-04-29T02:37:17.380Z,0.25
2023-04-29T02:38:17.406Z,0.28
2023-04-29T02:39:17.422Z,0.36
2023-04-29T02:40:17.473Z,0.48
2023-04-29T02:41:17.521Z,0.32
2023-04-29T02:42:17.586Z,0.37
2023-04-29T02:43:17.628Z,0.45
2023-04-29T02:44:17.669Z,0.34
2023-04-29T02:45:17.765Z,0.38
2023-04-29T02:46:17.785Z,0.32
2023-04-29T02:47:17.850Z,0.28
2023-04-29T02:48:17.899Z,0.25
2023-04-29T02:49:17.965Z,0.45
2023-04-29T02:50:18.008Z,0.54
2023-04-29T02:51:18.058Z,0.49
2023-04-29T02:52:18.134Z,0.24
2023-04-29T02:53:18.192Z,0.42
2023-04-29T02:54:18.264Z,0.23
2023-04-29T02:55:18.314Z,0.33
2023-04-29T02:56:18.368Z,0.32
2023-04-29T02:57:18.414Z,0.57
2023-04-29T02:58:18.504Z,0.36
2023-04-29T02:59:18.547Z,0.26
2023-04-29T03:00:18.616Z,0.34
2023-04-29T03:01:18.705Z,0.32
2023-04-29T03:02:18.777Z,0.37
2023-04-29T03:03:19.000Z,0.38
2023-04-29T03:04:19.192Z,0.18
2023-04-29T03:05:18.918Z,0.29
2023-04-29T03:06:18.958Z,0.41
2023-04-29T03:07:19.025Z,0.30
2023-04-29T03:08:19.070Z,0.34
2023-04-29T03:09:19.136Z,0.26
2023-04-29T03:10:19.203Z,0.30
2023-04-29T03:11:19.243Z,0.37
2023-04-29T03:12:19.330Z,0.39
2023-04-29T03:13:19.381Z,0.46
2023-04-29T03:14:19.445Z,0.29
2023-04-29T03:15:19.519Z,0.38
2023-04-29T03:16:19.570Z,0.26
2023-04-29T03:17:19.627Z,0.40
2023-04-29T03:18:19.692Z,0.29
2023-04-29T03:19:19.722Z,0.39
2023-04-29T03:20:19.816Z,0.26
2023-04-29T03:21:19.854Z,0.18
2023-04-29T03:22:19.905Z,0.16
2023-04-29T03:23:19.943Z,0.30
2023-04-29T03:24:20.039Z,0.20
2023-04-29T03:25:20.085Z,0.39
2023-04-29T03:26:20.166Z,0.30
2023-04-29T03:27:20.184Z,0.19
2023-04-29T03:28:20.238Z,0.36
2023-04-29T03:29:20.307Z,0.31
2023-04-29T03:30:20.343Z,0.37
2023-04-29T03:31:20.432Z,0.23
2023-04-29T03:32:20.475Z,0.31
2023-04-29T03:33:20.514Z,0.27
2023-04-29T03:34:20.552Z,0.23
2023-04-29T03:35:20.640Z,0.45
2023-04-29T03:36:20.716Z,0.25
2023-04-29T03:37:20.777Z,0.27
2023-04-29T03:38:20.853Z,0.21
2023-04-29T03:39:20.946Z,0.17
2023-04-29T03:40:20.994Z,0.32
2023-04-29T03:41:21.038Z,0.24
2023-04-29T03:42:21.100Z,0.34
2023-04-29T03:43:21.233Z,0.25
2023-04-29T03:44:21.225Z,0.26
2023-04-29T03:45:21.291Z,0.25
2023-04-29T03:46:21.416Z,0.32
2023-04-29T03:47:21.390Z,0.32
2023-04-29T03:48:21.453Z,0.30
2023-04-29T03:49:21.526Z,0.34
2023-04-29T03:50:21.671Z,0.28
2023-04-29T03:51:21.630Z,0.30
2023-04-29T03:52:21.693Z,0.27
2023-04-29T03:53:21.752Z,0.31
2023-04-29T03:54:21.816Z,0.42
2023-04-29T03:55:21.860Z,0.39
2023-04-29T03:56:21.982Z,0.27
2023-04-29T03:57:22.006Z,0.15
2023-04-29T03:58:22.069Z,0.32
2023-04-29T03:59:22.147Z,0.29
2023-04-29T04:00:22.185Z,0.26
2023-04-29T04:01:22.249Z,0.33
2023-04-29T04:02:22.408Z,0.39
2023-04-29T04:03:22.508Z,0.35
2023-04-29T04:04:22.526Z,0.16
2023-04-29T04:05:22.471Z,0.27
2023-04-29T04:06:22.540Z,0.30
2023-04-29T04:07:22.590Z,0.23
2023-04-29T04:08:22.663Z,0.26
2023-04-29T04:09:22.689Z,0.28
2023-04-29T04:10:22.757Z,0.45
2023-04-29T04:11:22.853Z,0.29
2023-04-29T04:12:22.908Z,0.23
2023-04-29T04:13:22.967Z,0.23
2023-04-29T04:14:23.049Z,0.27
2023-04-29T04:15:23.053Z,0.46
2023-04-29T04:16:23.146Z,0.26
2023-04-29T04:17:23.199Z,0.46
2023-04-29T04:18:23.265Z,0.30
2023-04-29T04:19:23.350Z,0.15
2023-04-29T04:20:23.394Z,0.35
2023-04-29T04:21:23.456Z,0.29
2023-04-29T04:22:23.513Z,0.27
2023-04-29T04:23:23.581Z,0.28
2023-04-29T04:24:23.627Z,0.22
2023-04-29T04:25:23.703Z,0.34
2023-04-29T04:26:23.750Z,0.25
2023-04-29T04:27:23.808Z,0.30
2023-04-29T04:28:23.862Z,0.33
2023-04-29T04:29:23.946Z,0.35
2023-04-29T04:30:24.028Z,0.28
2023-04-29T04:31:24.103Z,0.27
2023-04-29T04:32:24.181Z,0.30
2023-04-29T04:33:24.193Z,0.46
2023-04-29T04:34:24.247Z,0.26
2023-04-29T04:35:24.352Z,0.34
2023-04-29T04:36:24.378Z,0.41
2023-04-29T04:37:24.440Z,0.21
2023-04-29T04:38:24.509Z,0.39
2023-04-29T04:39:24.551Z,0.20
2023-04-29T04:40:24.627Z,0.38
2023-04-29T04:41:24.670Z,0.27
2023-04-29T04:42:24.753Z,0.32
2023-04-29T04:43:24.801Z,0.21
2023-04-29T04:44:24.847Z,0.20
2023-04-29T04:45:25.009Z,0.31
2023-04-29T04:46:25.093Z,0.28
2023-04-29T04:47:25.041Z,0.17
2023-04-29T04:48:25.092Z,0.33
2023-04-29T04:49:25.146Z,0.21
2023-04-29T04:50:25.243Z,0.29
2023-04-29T04:51:25.250Z,0.23
2023-04-29T04:52:25.302Z,0.27
2023-04-29T04:53:25.344Z,0.35
2023-04-29T04:54:25.378Z,0.30
2023-04-29T04:55:25.486Z,0.09
2023-04-29T04:56:25.500Z,0.19
2023-04-29T04:57:25.587Z,0.24
2023-04-29T04:58:25.644Z,0.57
2023-04-29T04:59:25.689Z,0.13
2023-04-29T05:00:25.750Z,0.45
2023-04-29T05:01:25.822Z,0.16
2023-04-29T05:02:26.003Z,0.20
2023-04-29T05:03:26.023Z,0.29
2023-04-29T05:04:26.107Z,0.34
2023-04-29T05:05:26.047Z,0.17
2023-04-29T05:06:26.166Z,0.19
2023-04-29T05:07:26.180Z,0.20
2023-04-29T05:08:26.221Z,0.25
2023-04-29T05:09:26.295Z,0.37
2023-04-29T05:10:26.384Z,1.24
2023-04-29T05:11:26.407Z,0.29
2023-04-29T05:12:26.494Z,0.32
2023-04-29T05:13:26.528Z,0.33
2023-04-29T05:14:26.581Z,0.50
2023-04-29T05:15:26.666Z,0.27
2023-04-29T05:16:26.766Z,0.35
2023-04-29T05:17:26.878Z,0.43
2023-04-29T05:18:26.885Z,0.22
2023-04-29T05:19:26.915Z,0.26
2023-04-29T05:20:26.988Z,0.19
2023-04-29T05:21:27.026Z,0.25
2023-04-29T05:22:27.093Z,0.26
2023-04-29T05:23:27.163Z,0.25
2023-04-29T05:24:27.210Z,0.34
2023-04-29T05:25:27.268Z,0.25
2023-04-29T05:26:27.317Z,0.38
2023-04-29T05:27:27.377Z,0.19
2023-04-29T05:28:28.408Z,0.33
2023-04-29T05:29:27.538Z,0.22
2023-04-29T05:30:27.649Z,0.33
2023-04-29T05:31:27.623Z,0.19
2023-04-29T05:32:27.697Z,0.25
2023-04-29T05:33:27.705Z,0.30
2023-04-29T05:34:27.784Z,0.22
2023-04-29T05:35:27.830Z,0.29
2023-04-29T05:36:27.908Z,0.42
2023-04-29T05:37:27.964Z,0.34
2023-04-29T05:38:28.027Z,0.25
2023-04-29T05:39:28.059Z,0.31
2023-04-29T05:40:28.127Z,0.40
2023-04-29T05:41:28.215Z,0.45
2023-04-29T05:42:28.237Z,0.27
2023-04-29T05:43:28.271Z,0.26
2023-04-29T05:44:28.350Z,0.39
2023-04-29T05:45:28.397Z,0.24
2023-04-29T05:46:28.459Z,0.38
2023-04-29T05:47:28.546Z,0.31
2023-04-29T05:48:28.552Z,0.24
2023-04-29T05:49:28.637Z,0.33
2023-04-29T05:50:28.664Z,0.51
2023-04-29T05:51:28.735Z,0.35
2023-04-29T05:52:28.798Z,0.43
2023-04-29T05:53:28.861Z,0.57
2023-04-29T05:54:28.893Z,0.39
2023-04-29T05:55:28.981Z,0.50
2023-04-29T05:56:29.020Z,0.43
2023-04-29T05:57:29.081Z,0.65
2023-04-29T05:58:29.116Z,0.36
2023-04-29T05:59:29.184Z,0.38
2023-04-29T06:00:29.370Z,0.40
2023-04-29T06:01:29.283Z,0.55
2023-04-29T06:02:29.369Z,0.35
2023-04-29T06:03:29.528Z,0.33
2023-04-29T06:04:29.577Z,0.58
2023-04-29T06:05:29.744Z,0.51
2023-04-29T06:06:29.809Z,0.47
2023-04-29T06:07:29.622Z,0.39
2023-04-29T06:08:29.677Z,0.40
2023-04-29T06:09:29.710Z,0.53
2023-04-29T06:10:29.751Z,0.61
2023-04-29T06:11:29.830Z,0.51
2023-04-29T06:12:29.864Z,0.49
2023-04-29T06:13:29.892Z,0.34
2023-04-29T06:14:29.972Z,0.33
2023-04-29T06:15:30.004Z,0.33
2023-04-29T06:16:30.076Z,0.64
2023-04-29T06:17:30.109Z,0.66
2023-04-29T06:18:30.106Z,0.41
2023-04-29T06:19:30.154Z,0.41
2023-04-29T06:20:30.182Z,0.16
2023-04-29T06:21:30.238Z,0.36
2023-04-29T06:22:30.263Z,0.43
2023-04-29T06:23:30.329Z,0.36
2023-04-29T06:24:30.334Z,0.40
2023-04-29T06:25:30.361Z,0.32
2023-04-29T06:26:30.387Z,0.31
2023-04-29T06:27:30.421Z,0.21
2023-04-29T06:28:30.454Z,0.31
2023-04-29T06:29:30.456Z,0.30
2023-04-29T06:30:30.483Z,0.47
2023-04-29T06:31:30.520Z,0.35
2023-04-29T06:32:30.552Z,0.31
2023-04-29T06:33:30.547Z,0.45
2023-04-29T06:34:30.535Z,0.53
2023-04-29T06:35:30.574Z,0.35
2023-04-29T06:36:30.569Z,0.32
2023-04-29T06:37:30.594Z,0.47
2023-04-29T06:38:30.620Z,0.60
2023-04-29T06:39:30.640Z,0.45
2023-04-29T06:40:30.665Z,0.40
2023-04-29T06:41:30.641Z,0.29
2023-04-29T06:42:30.720Z,0.34
2023-04-29T06:43:30.699Z,0.55
2023-04-29T06:44:30.711Z,0.49
2023-04-29T06:45:30.715Z,0.32
2023-04-29T06:46:30.744Z,0.35
2023-04-29T06:47:30.803Z,0.49
2023-04-29T06:48:30.740Z,0.32
2023-04-29T06:49:30.750Z,0.42
2023-04-29T06:50:30.777Z,0.40
2023-04-29T06:51:30.818Z,0.26
2023-04-29T06:52:30.864Z,0.37
2023-04-29T06:53:30.926Z,0.56
2023-04-29T06:54:30.939Z,0.43
2023-04-29T06:55:31.035Z,0.45
2023-04-29T06:56:31.080Z,0.36
2023-04-29T06:57:31.133Z,0.24
2023-04-29T06:58:31.188Z,0.37
2023-04-29T06:59:31.223Z,0.44
2023-04-29T07:00:31.289Z,0.39
2023-04-29T07:01:31.370Z,0.46
2023-04-29T07:02:31.459Z,0.36
2023-04-29T07:03:31.561Z,0.39
2023-04-29T07:04:31.488Z,0.28
2023-04-29T07:05:31.491Z,0.51
2023-04-29T07:06:31.535Z,0.22
2023-04-29T07:07:31.592Z,0.34
2023-04-29T07:08:31.624Z,0.32
2023-04-29T07:09:31.817Z,0.31
2023-04-29T07:10:31.703Z,0.25
2023-04-29T07:11:31.771Z,0.29
2023-04-29T07:12:31.839Z,0.28
2023-04-29T07:13:31.846Z,0.31
2023-04-29T07:14:31.968Z,0.37
2023-04-29T07:15:31.896Z,0.36
2023-04-29T07:16:31.951Z,0.46
2023-04-29T07:17:31.981Z,0.41
2023-04-29T07:18:31.999Z,0.45
2023-04-29T07:19:32.044Z,0.32
2023-04-29T07:20:32.065Z,0.28
2023-04-29T07:21:32.101Z,0.25
2023-04-29T07:22:32.143Z,0.43
2023-04-29T07:23:32.164Z,0.29
2023-04-29T07:24:32.181Z,0.45
2023-04-29T07:25:32.195Z,0.43
2023-04-29T07:26:32.410Z,0.39
2023-04-29T07:27:32.247Z,0.34
2023-04-29T07:28:32.262Z,0.31
2023-04-29T07:29:32.320Z,0.28
2023-04-29T07:30:32.330Z,0.45
2023-04-29T07:31:32.385Z,0.19
2023-04-29T07:32:32.378Z,0.26
2023-04-29T07:33:32.379Z,0.19
2023-04-29T07:34:32.439Z,0.31
2023-04-29T07:35:32.392Z,0.36
2023-04-29T07:36:32.421Z,0.29
2023-04-29T07:37:32.441Z,0.45
2023-04-29T07:38:32.443Z,0.30
2023-04-29T07:39:32.456Z,0.32
2023-04-29T07:40:32.431Z,0.39
2023-04-29T07:41:32.442Z,0.26
2023-04-29T07:42:32.480Z,0.38
2023-04-29T07:43:32.432Z,0.27
2023-04-29T07:44:32.461Z,0.23
2023-04-29T07:45:32.447Z,0.46
2023-04-29T07:46:32.517Z,0.20
2023-04-29T07:47:32.493Z,0.27
2023-04-29T07:48:32.466Z,0.25
2023-04-29T07:49:32.476Z,0.22
2023-04-29T07:50:32.457Z,0.28
2023-04-29T07:51:32.476Z,0.30
2023-04-29T07:52:32.506Z,0.26
2023-04-29T07:53:32.596Z,0.27
2023-04-29T07:54:32.575Z,0.22
2023-04-29T07:55:32.670Z,0.31
2023-04-29T07:56:32.705Z,0.19
2023-04-29T07:57:32.759Z,0.25
2023-04-29T07:58:32.812Z,0.26
2023-04-29T07:59:32.883Z,0.33
2023-04-29T08:00:32.918Z,0.16
2023-04-29T08:01:32.985Z,0.32
2023-04-29T08:02:33.109Z,0.42
2023-04-29T08:03:33.310Z,0.21
2023-04-29T08:04:33.345Z,0.33
2023-04-29T08:05:33.776Z,0.30
2023-04-29T08:06:33.242Z,0.26
2023-04-29T08:07:33.290Z,0.14
2023-04-29T08:08:33.375Z,0.22
2023-04-29T08:09:33.415Z,0.20
2023-04-29T08:10:33.484Z,0.08
2023-04-29T08:11:33.492Z,0.30
2023-04-29T08:12:33.586Z,0.20
2023-04-29T08:13:33.571Z,0.30
2023-04-29T08:14:33.640Z,0.13
2023-04-29T08:15:33.690Z,0.22
2023-04-29T08:16:33.790Z,0.19
2023-04-29T08:17:33.907Z,0.21
2023-04-29T08:18:33.868Z,0.17
2023-04-29T08:19:33.939Z,0.09
2023-04-29T08:20:33.971Z,0.40
2023-04-29T08:21:33.992Z,0.21
2023-04-29T08:22:34.037Z,0.20
2023-04-29T08:23:34.083Z,0.34
2023-04-29T08:24:34.116Z,0.19
2023-04-29T08:25:34.168Z,0.12
2023-04-29T08:26:34.183Z,0.21
2023-04-29T08:27:34.257Z,0.18
2023-04-29T08:28:34.260Z,0.10
2023-04-29T08:29:34.280Z,0.09
2023-04-29T08:30:34.315Z,0.20
2023-04-29T08:31:34.406Z,0.10
2023-04-29T08:32:34.444Z,0.52
2023-04-29T08:33:34.406Z,0.21
2023-04-29T08:34:34.472Z,0.09
2023-04-29T08:35:34.463Z,0.23
2023-04-29T08:36:34.476Z,0.22
2023-04-29T08:37:34.494Z,0.14
2023-04-29T08:38:34.515Z,0.19
2023-04-29T08:39:34.552Z,0.23
2023-04-29T08:40:34.580Z,0.19
2023-04-29T08:41:34.589Z,0.25
2023-04-29T08:42:34.609Z,0.17
2023-04-29T08:43:34.634Z,0.17
2023-04-29T08:44:34.640Z,0.22
2023-04-29T08:45:34.728Z,0.14
2023-04-29T08:46:34.773Z,0.15
2023-04-29T08:47:34.752Z,0.22
2023-04-29T08:48:34.831Z,0.17
2023-04-29T08:49:34.881Z,0.08
2023-04-29T08:50:34.883Z,0.37
2023-04-29T08:51:34.953Z,0.08
2023-04-29T08:52:34.934Z,0.17
2023-04-29T08:53:34.916Z,0.12
2023-04-29T08:54:34.962Z,0.31
2023-04-29T08:55:34.910Z,0.19
2023-04-29T08:56:35.040Z,0.30
2023-04-29T08:57:35.019Z,0.19
2023-04-29T08:58:35.034Z,0.22
2023-04-29T08:59:35.015Z,0.20
2023-04-29T09:00:35.025Z,0.21
2023-04-29T09:01:35.041Z,0.15
2023-04-29T09:02:35.188Z,0.21
2023-04-29T09:03:35.207Z,0.19
2023-04-29T09:04:35.196Z,0.37
2023-04-29T09:05:35.272Z,0.18
2023-04-29T09:06:35.409Z,0.19
2023-04-29T09:07:35.363Z,0.17
2023-04-29T09:08:35.368Z,0.13
2023-04-29T09:09:35.392Z,0.22
2023-04-29T09:10:35.398Z,0.16
2023-04-29T09:11:35.418Z,0.22
2023-04-29T09:12:35.457Z,0.26
2023-04-29T09:13:35.484Z,0.15
2023-04-29T09:14:35.496Z,0.12
2023-04-29T09:15:35.512Z,0.32
2023-04-29T09:16:35.603Z,0.08
2023-04-29T09:17:35.611Z,0.15
2023-04-29T09:18:35.598Z,0.07
2023-04-29T09:19:35.561Z,0.18
2023-04-29T09:20:35.563Z,0.22
2023-04-29T09:21:35.581Z,0.15
2023-04-29T09:22:35.557Z,0.07
2023-04-29T09:23:35.549Z,0.17
2023-04-29T09:24:35.575Z,0.19
2023-04-29T09:25:35.576Z,0.13
2023-04-29T09:26:35.564Z,0.11
2023-04-29T09:27:35.590Z,0.10
2023-04-29T09:28:35.623Z,0.17
2023-04-29T09:29:35.617Z,0.10
2023-04-29T09:30:35.647Z,0.25
2023-04-29T09:31:35.689Z,0.07
2023-04-29T09:32:37.641Z,0.20
2023-04-29T09:33:35.718Z,0.14
2023-04-29T09:34:35.765Z,0.17
2023-04-29T09:35:35.717Z,0.21
2023-04-29T09:36:35.706Z,0.13
2023-04-29T09:37:35.687Z,0.07
2023-04-29T09:38:35.696Z,0.14
2023-04-29T09:39:35.698Z,0.17
2023-04-29T09:40:46.539Z,0.21
2023-04-29T09:41:36.658Z,0.12
2023-04-29T09:42:35.680Z,0.09
2023-04-29T09:43:35.665Z,0.24
2023-04-29T09:44:35.671Z,0.27
2023-04-29T09:45:35.672Z,0.24
2023-04-29T09:46:35.951Z,0.16
2023-04-29T09:47:35.701Z,0.12
2023-04-29T09:48:35.617Z,0.25
2023-04-29T09:49:35.651Z,0.31
2023-04-29T09:50:35.640Z,0.16
2023-04-29T09:51:35.608Z,0.22
2023-04-29T09:52:35.603Z,0.11
2023-04-29T09:53:35.593Z,0.21
2023-04-29T09:54:35.591Z,0.20
2023-04-29T09:55:35.589Z,0.16
2023-04-29T09:56:35.582Z,0.12
2023-04-29T09:57:35.584Z,0.18
2023-04-29T09:58:35.575Z,0.31
2023-04-29T09:59:35.536Z,0.41
2023-04-29T10:00:35.536Z,0.23
2023-04-29T10:01:35.605Z,0.28
2023-04-29T10:02:35.666Z,0.19
2023-04-29T10:03:35.816Z,0.10
2023-04-29T10:04:36.655Z,0.24
2023-04-29T10:05:35.789Z,0.20
2023-04-29T10:06:35.831Z,0.17
2023-04-29T10:07:35.844Z,0.22
2023-04-29T10:08:35.956Z,0.13
2023-04-29T10:09:35.949Z,0.17
2023-04-29T10:10:35.892Z,0.17
2023-04-29T10:11:35.969Z,0.16
2023-04-29T10:12:36.052Z,0.14
2023-04-29T10:13:36.055Z,0.21
2023-04-29T10:14:36.116Z,0.24
2023-04-29T10:15:36.219Z,0.25
2023-04-29T10:16:36.257Z,0.23
2023-04-29T10:17:36.293Z,0.18
2023-04-29T10:18:36.425Z,0.11
2023-04-29T10:19:36.419Z,0.13
2023-04-29T10:20:36.443Z,0.13
2023-04-29T10:21:36.521Z,0.20
2023-04-29T10:22:36.595Z,0.14
2023-04-29T10:23:36.650Z,0.16
2023-04-29T10:24:36.716Z,0.24
2023-04-29T10:25:36.742Z,0.13
2023-04-29T10:26:36.800Z,0.13
2023-04-29T10:27:36.873Z,0.16
2023-04-29T10:28:36.950Z,0.10
2023-04-29T10:29:36.996Z,0.21
2023-04-29T10:30:37.049Z,0.17
2023-04-29T10:31:37.147Z,0.11
2023-04-29T10:32:49.805Z,0.21
2023-04-29T10:33:38.200Z,0.10
2023-04-29T10:34:37.178Z,0.20
2023-04-29T10:35:37.164Z,0.18
2023-04-29T10:36:37.142Z,0.17
2023-04-29T10:37:37.148Z,0.35
2023-04-29T10:38:37.134Z,0.18
2023-04-29T10:39:37.125Z,0.15
2023-04-29T10:40:37.111Z,0.20
2023-04-29T10:41:37.115Z,0.17
2023-04-29T10:42:37.126Z,0.06
2023-04-29T10:43:37.188Z,0.26
2023-04-29T10:44:37.217Z,0.16
2023-04-29T10:45:37.249Z,0.13
2023-04-29T10:46:37.311Z,0.11
2023-04-29T10:47:37.433Z,0.11
2023-04-29T10:48:37.459Z,0.18
2023-04-29T10:49:37.480Z,0.26
2023-04-29T10:50:37.478Z,0.08
2023-04-29T10:51:37.499Z,0.04
2023-04-29T10:52:37.533Z,0.08
2023-04-29T10:53:37.581Z,0.09
2023-04-29T10:54:37.564Z,0.14
2023-04-29T10:55:37.611Z,0.22
2023-04-29T10:56:37.657Z,0.15
2023-04-29T10:57:37.745Z,0.14
2023-04-29T10:58:37.830Z,0.11
2023-04-29T10:59:37.912Z,0.23
2023-04-29T11:00:37.923Z,0.11
2023-04-29T11:01:38.102Z,0.16
2023-04-29T11:02:38.126Z,0.13
2023-04-29T11:03:38.209Z,0.29
2023-04-29T11:04:38.200Z,0.22
2023-04-29T11:05:38.252Z,0.14
2023-04-29T11:06:38.337Z,0.17
2023-04-29T11:07:38.477Z,0.13
2023-04-29T11:08:38.563Z,0.09
2023-04-29T11:09:38.550Z,0.17
2023-04-29T11:10:38.539Z,0.15
2023-04-29T11:11:38.544Z,0.10
2023-04-29T11:12:38.530Z,0.11
2023-04-29T11:13:38.576Z,0.09
2023-04-29T11:14:38.604Z,0.24
2023-04-29T11:15:38.724Z,0.32
2023-04-29T11:16:38.832Z,0.14
2023-04-29T11:17:39.018Z,0.07
2023-04-29T11:18:38.905Z,0.23
2023-04-29T11:19:38.908Z,0.21
2023-04-29T11:20:38.900Z,0.10
2023-04-29T11:21:38.910Z,0.15
2023-04-29T11:22:38.902Z,0.06
2023-04-29T11:23:39.037Z,0.15
2023-04-29T11:24:39.012Z,0.10
2023-04-29T11:25:39.623Z,0.17
2023-04-29T11:26:39.045Z,0.17
2023-04-29T11:27:39.053Z,0.11
2023-04-29T11:28:39.046Z,0.11
2023-04-29T11:29:39.098Z,0.12
2023-04-29T11:30:39.095Z,0.27
2023-04-29T11:31:39.257Z,0.13
2023-04-29T11:32:39.260Z,0.12
2023-04-29T11:33:39.174Z,0.35
2023-04-29T11:34:39.240Z,0.20
2023-04-29T11:35:39.270Z,0.15
2023-04-29T11:36:39.277Z,0.11
2023-04-29T11:37:39.301Z,0.10
2023-04-29T11:38:39.304Z,0.19
2023-04-29T11:39:39.349Z,0.21
2023-04-29T11:40:39.368Z,0.17
2023-04-29T11:41:39.409Z,0.10
2023-04-29T11:42:39.415Z,0.06
2023-04-29T11:43:39.436Z,0.10
2023-04-29T11:44:39.461Z,0.11
2023-04-29T11:45:39.489Z,0.15
2023-04-29T11:46:39.534Z,0.25
2023-04-29T11:47:39.497Z,0.17
2023-04-29T11:48:39.533Z,0.23
2023-04-29T11:49:39.558Z,0.11
2023-04-29T11:50:39.575Z,0.44
2023-04-29T11:51:39.587Z,0.09
2023-04-29T11:52:39.594Z,0.13
2023-04-29T11:53:39.671Z,0.11
2023-04-29T11:54:39.667Z,0.07
2023-04-29T11:55:39.674Z,0.14
2023-04-29T11:56:39.712Z,0.26
2023-04-29T11:57:39.708Z,0.14
2023-04-29T11:58:39.757Z,0.16
2023-04-29T11:59:39.779Z,0.11
2023-04-29T12:00:39.822Z,0.10
2023-04-29T12:01:39.801Z,0.17
2023-04-29T12:02:39.921Z,0.13
2023-04-29T12:03:39.982Z,0.29
2023-04-29T12:04:40.044Z,0.39
2023-04-29T12:05:40.057Z,0.24
2023-04-29T12:06:39.948Z,0.15
2023-04-29T12:07:39.980Z,0.11
2023-04-29T12:08:39.971Z,0.12
2023-04-29T12:09:40.031Z,0.13
2023-04-29T12:10:40.037Z,0.12
2023-04-29T12:11:40.084Z,0.15
2023-04-29T12:12:40.097Z,0.04
2023-04-29T12:13:40.126Z,0.19
2023-04-29T12:14:40.140Z,0.11
2023-04-29T12:15:40.415Z,0.13
2023-04-29T12:16:40.258Z,0.11
2023-04-29T12:17:40.289Z,0.13
2023-04-29T12:18:40.294Z,0.07
2023-04-29T12:19:40.323Z,0.06
2023-04-29T12:20:40.315Z,0.17
2023-04-29T12:21:40.354Z,0.13
2023-04-29T12:22:40.369Z,0.15
2023-04-29T12:23:40.383Z,0.12
2023-04-29T12:24:40.436Z,0.21
2023-04-29T12:25:40.446Z,0.12
2023-04-29T12:26:40.520Z,0.12
2023-04-29T12:27:40.535Z,0.11
2023-04-29T12:28:40.573Z,0.14
2023-04-29T12:29:40.627Z,0.11
2023-04-29T12:30:40.626Z,0.11
2023-04-29T12:31:40.671Z,0.09
2023-04-29T12:32:40.720Z,0.05
2023-04-29T12:33:40.726Z,0.37
2023-04-29T12:34:40.750Z,0.15
2023-04-29T12:35:40.778Z,0.06
2023-04-29T12:36:40.827Z,0.06
2023-04-29T12:37:40.813Z,0.18
2023-04-29T12:38:40.875Z,0.10
2023-04-29T12:39:40.884Z,0.09
2023-04-29T12:40:40.901Z,0.12
2023-04-29T12:41:40.954Z,0.17
2023-04-29T12:42:40.965Z,0.12
2023-04-29T12:43:41.041Z,0.16
2023-04-29T12:44:41.099Z,0.18
2023-04-29T12:45:41.084Z,0.09
2023-04-29T12:46:41.190Z,0.07
2023-04-29T12:47:41.223Z,0.14
2023-04-29T12:48:41.693Z,0.05
2023-04-29T12:49:41.201Z,0.30
2023-04-29T12:50:41.234Z,0.04
2023-04-29T12:51:41.262Z,0.09
2023-04-29T12:52:41.312Z,0.32
2023-04-29T12:53:41.343Z,0.09
2023-04-29T12:54:41.372Z,0.02
2023-04-29T12:55:41.402Z,0.13
2023-04-29T12:56:41.481Z,0.18
2023-04-29T12:57:41.505Z,0.06
2023-04-29T12:58:41.686Z,0.11
2023-04-29T12:59:41.632Z,0.07
2023-04-29T13:00:41.612Z,0.05
2023-04-29T13:01:41.798Z,0.21
2023-04-29T13:02:41.925Z,0.23
2023-04-29T13:03:41.996Z,0.14
2023-04-29T13:05:42.186Z,0.13
2023-04-29T13:06:41.932Z,0.13
2023-04-29T13:07:41.969Z,0.10
2023-04-29T13:08:42.075Z,0.13
2023-04-29T13:09:42.102Z,0.27
2023-04-29T13:10:42.137Z,0.20
2023-04-29T13:11:42.218Z,0.29
2023-04-29T13:12:42.247Z,0.08
2023-04-29T13:13:42.309Z,0.06
2023-04-29T13:14:42.379Z,0.13
2023-04-29T13:15:42.428Z,0.05
2023-04-29T13:16:42.515Z,0.07
2023-04-29T13:17:42.573Z,0.12
2023-04-29T13:19:51.215Z,0.09
2023-04-29T13:20:43.651Z,0.14